createdAt,value
2022-09-17T00:01:16.833Z,12.55
2022-09-17T00:04:19.357Z,11.97
2022-09-17T00:07:21.888Z,12.56
2022-09-17T00:10:25.795Z,12.57
2022-09-17T00:13:28.365Z,12.46
2022-09-17T00:16:32.304Z,12.08
2022-09-17T00:19:34.928Z,12.61
2022-09-17T00:22:37.492Z,12.65
2022-09-17T00:25:41.481Z,12.45
2022-09-17T00:28:48.292Z,12.75
2022-09-17T00:31:50.884Z,12.70
2022-09-17T00:34:53.672Z,12.75
2022-09-17T00:37:56.181Z,12.75
2022-09-17T00:41:00.139Z,12.75
2022-09-17T00:44:03.930Z,12.74
2022-09-17T00:47:06.836Z,12.74
2022-09-17T00:50:17.090Z,12.48
2022-09-17T00:53:20.468Z,12.45
2022-09-17T00:56:28.588Z,12.40
2022-09-17T00:59:31.141Z,12.75
2022-09-17T01:02:33.696Z,12.65
2022-09-17T01:05:39.337Z,12.38
2022-09-17T01:08:48.827Z,12.70
2022-09-17T01:12:10.388Z,12.33
2022-09-17T01:15:20.544Z,12.54
2022-09-17T01:18:30.209Z,12.75
2022-09-17T01:21:41.699Z,12.57
2022-09-17T01:24:49.418Z,12.91
2022-09-17T01:28:23.651Z,12.95
2022-09-17T01:31:37.241Z,12.90
2022-09-17T01:34:42.402Z,12.54
2022-09-17T01:37:49.589Z,12.51
2022-09-17T01:40:55.790Z,12.80
2022-09-17T01:44:00.289Z,12.78
2022-09-17T01:47:05.631Z,13.01
2022-09-17T01:50:09.561Z,12.60
2022-09-17T01:53:12.949Z,13.02
2022-09-17T01:56:17.342Z,13.10
2022-09-17T01:59:22.188Z,13.13
2022-09-17T02:02:28.418Z,12.93
2022-09-17T02:05:32.052Z,12.83
2022-09-17T02:08:38.028Z,12.91
2022-09-17T02:11:40.550Z,13.16
2022-09-17T02:14:45.087Z,13.00
2022-09-17T02:17:50.576Z,13.20
2022-09-17T02:20:55.372Z,13.21
2022-09-17T02:24:00.888Z,12.93
2022-09-17T02:27:06.508Z,13.18
2022-09-17T02:30:09.733Z,13.16
2022-09-17T02:33:14.374Z,12.77
2022-09-17T02:36:17.142Z,12.70
2022-09-17T02:39:19.664Z,12.59
2022-09-17T02:42:23.686Z,13.17
2022-09-17T02:45:32.420Z,12.89
2022-09-17T02:48:44.288Z,12.97
2022-09-17T02:51:51.364Z,13.11
2022-09-17T02:54:58.166Z,12.61
2022-09-17T02:58:04.342Z,12.99
2022-09-17T03:01:08.873Z,13.06
2022-09-17T03:04:15.390Z,13.07
2022-09-17T03:07:18.287Z,12.83
2022-09-17T03:10:20.788Z,13.04
2022-09-17T03:13:23.368Z,12.57
2022-09-17T03:16:25.967Z,13.04
2022-09-17T03:19:29.890Z,13.04
2022-09-17T03:22:32.525Z,13.03
2022-09-17T03:25:35.087Z,12.98
2022-09-17T03:28:37.627Z,12.66
2022-09-17T03:31:40.197Z,13.04
2022-09-17T03:34:46.788Z,12.89
2022-09-17T03:37:49.325Z,12.96
2022-09-17T03:40:59.345Z,13.03
2022-09-17T03:44:01.923Z,12.43
2022-09-17T03:47:04.599Z,12.92
2022-09-17T03:50:09.468Z,13.04
2022-09-17T03:53:12.163Z,13.05
2022-09-17T03:56:14.720Z,13.06
2022-09-17T03:59:17.485Z,13.07
2022-09-17T04:02:20.123Z,13.06
2022-09-17T04:05:24.573Z,13.05
2022-09-17T04:08:27.115Z,13.00
2022-09-17T04:11:29.634Z,13.03
2022-09-17T04:14:32.152Z,13.04
2022-09-17T04:17:34.703Z,13.07
2022-09-17T04:20:38.674Z,13.07
2022-09-17T04:23:41.227Z,13.07
2022-09-17T04:26:43.731Z,13.07
2022-09-17T04:29:46.252Z,12.88
2022-09-17T04:32:48.795Z,13.09
2022-09-17T04:35:54.046Z,13.02
2022-09-17T04:38:56.596Z,12.64
2022-09-17T04:41:59.139Z,12.88
2022-09-17T04:45:01.947Z,12.74
2022-09-17T04:48:04.757Z,12.42
2022-09-17T04:51:08.648Z,12.08
2022-09-17T04:54:11.174Z,12.50
2022-09-17T04:57:13.721Z,12.52
2022-09-17T05:00:17.707Z,12.43
2022-09-17T05:03:20.214Z,12.35
2022-09-17T05:06:24.128Z,12.16
2022-09-17T05:09:26.704Z,12.44
2022-09-17T05:12:33.716Z,12.44
2022-09-17T05:15:36.895Z,12.43
2022-09-17T05:18:39.396Z,12.35
2022-09-17T05:21:43.283Z,12.35
2022-09-17T05:24:45.839Z,12.34
2022-09-17T05:27:48.379Z,11.82
2022-09-17T05:30:50.960Z,12.25
2022-09-17T05:33:53.544Z,12.22
2022-09-17T05:36:57.467Z,12.14
2022-09-17T05:40:00.181Z,12.23
2022-09-17T05:43:03.562Z,12.27
2022-09-17T05:46:06.976Z,12.28
2022-09-17T05:49:09.862Z,12.09
2022-09-17T05:52:13.751Z,12.10
2022-09-17T05:55:16.469Z,12.29
2022-09-17T05:58:19.846Z,12.03
2022-09-17T06:01:22.373Z,12.29
2022-09-17T06:04:24.883Z,12.53
2022-09-17T06:07:28.782Z,12.53
2022-09-17T06:10:31.373Z,12.54
2022-09-17T06:13:34.185Z,12.04
2022-09-17T06:16:36.882Z,12.47
2022-09-17T06:19:39.493Z,12.55
2022-09-17T06:22:43.756Z,12.70
2022-09-17T06:25:51.596Z,12.82
2022-09-17T06:28:54.173Z,12.86
2022-09-17T06:31:56.778Z,12.84
2022-09-17T06:34:59.426Z,12.58
2022-09-17T06:38:05.309Z,12.43
2022-09-17T06:41:07.917Z,12.55
2022-09-17T06:44:10.458Z,12.78
2022-09-17T06:47:12.987Z,12.77
2022-09-17T06:50:15.787Z,12.77
2022-09-17T06:53:20.300Z,12.76
2022-09-17T06:56:22.892Z,13.27
2022-09-17T06:59:26.631Z,13.69
2022-09-17T07:02:29.519Z,13.84
2022-09-17T07:05:33.047Z,13.88
2022-09-17T07:08:36.962Z,13.66
2022-09-17T07:11:39.520Z,13.64
2022-09-17T07:14:42.090Z,13.52
2022-09-17T07:17:45.124Z,13.26
2022-09-17T07:20:53.995Z,13.59
2022-09-17T07:23:57.991Z,13.36
2022-09-17T07:27:00.628Z,13.96
2022-09-17T07:30:03.339Z,14.41
2022-09-17T07:33:05.939Z,14.72
2022-09-17T07:36:09.512Z,14.88
2022-09-17T07:39:14.279Z,15.19
2022-09-17T07:42:16.860Z,14.67
2022-09-17T07:45:19.498Z,15.06
2022-09-17T07:48:22.223Z,14.70
2022-09-17T07:51:25.565Z,14.44
2022-09-17T07:54:29.576Z,14.64
2022-09-17T07:57:32.275Z,14.15
2022-09-17T08:00:35.092Z,14.27
2022-09-17T08:03:37.688Z,14.40
2022-09-17T08:06:41.025Z,14.06
2022-09-17T08:09:45.104Z,14.73
2022-09-17T08:12:47.691Z,15.04
2022-09-17T08:15:50.371Z,15.17
2022-09-17T08:18:55.714Z,15.54
2022-09-17T08:21:58.253Z,15.73
2022-09-17T08:25:04.367Z,15.47
2022-09-17T08:28:07.274Z,15.16
2022-09-17T08:31:09.899Z,14.96
2022-09-17T08:34:12.670Z,14.82
2022-09-17T08:37:15.313Z,15.15
2022-09-17T08:40:21.042Z,15.36
2022-09-17T08:43:24.379Z,15.68
2022-09-17T08:46:27.104Z,15.97
2022-09-17T08:49:34.791Z,16.04
2022-09-17T08:52:49.835Z,15.58
2022-09-17T08:55:57.621Z,15.52
2022-09-17T08:59:21.674Z,15.50
2022-09-17T09:02:30.017Z,15.84
2022-09-17T09:05:33.703Z,16.38
2022-09-17T09:08:37.976Z,16.37
2022-09-17T09:11:42.746Z,16.16
2022-09-17T09:14:49.309Z,15.83
2022-09-17T09:17:51.989Z,15.88
2022-09-17T09:20:55.619Z,15.70
2022-09-17T09:24:00.392Z,16.10
2022-09-17T09:27:06.408Z,16.04
2022-09-17T09:30:11.389Z,15.68
2022-09-17T09:33:15.104Z,15.51
2022-09-17T09:36:21.493Z,15.30
2022-09-17T09:39:25.224Z,15.65
2022-09-17T09:42:31.020Z,15.94
2022-09-17T09:45:40.525Z,15.83
2022-09-17T09:48:45.740Z,15.60
2022-09-17T09:51:53.716Z,15.65
2022-09-17T09:55:05.159Z,15.73
2022-09-17T09:58:13.373Z,15.89
2022-09-17T10:01:16.675Z,15.99
2022-09-17T10:04:21.308Z,16.09
2022-09-17T10:07:23.989Z,16.36
2022-09-17T10:10:26.508Z,16.39
2022-09-17T10:13:31.540Z,16.42
2022-09-17T10:16:36.210Z,16.24
2022-09-17T10:19:38.864Z,16.04
2022-09-17T10:22:42.406Z,15.48
2022-09-17T10:25:44.954Z,15.40
2022-09-17T10:28:50.371Z,15.52
2022-09-17T10:31:53.873Z,15.40
2022-09-17T10:35:01.246Z,15.54
2022-09-17T10:38:03.642Z,16.02
2022-09-17T10:41:11.444Z,15.83
2022-09-17T10:44:19.252Z,16.33
2022-09-17T10:47:23.685Z,16.29
2022-09-17T10:50:27.879Z,15.97
2022-09-17T10:53:32.184Z,15.66
2022-09-17T10:56:36.768Z,16.08
2022-09-17T11:00:00.365Z,16.21
2022-09-17T11:03:30.005Z,16.46
2022-09-17T11:06:43.428Z,16.54
2022-09-17T11:09:52.230Z,16.63
2022-09-17T11:13:02.218Z,17.29
2022-09-17T11:16:13.128Z,17.76
2022-09-17T11:19:19.993Z,18.00
2022-09-17T11:22:24.471Z,17.97
2022-09-17T11:25:42.141Z,17.94
2022-09-17T11:28:49.216Z,17.99
2022-09-17T11:31:56.528Z,18.15
2022-09-17T11:35:00.394Z,18.33
2022-09-17T11:38:05.429Z,18.14
2022-09-17T11:41:09.174Z,17.22
2022-09-17T11:44:14.311Z,17.05
2022-09-17T11:47:20.220Z,16.78
2022-09-17T11:50:23.752Z,16.82
2022-09-17T11:53:27.788Z,16.80
2022-09-17T11:56:31.447Z,16.54
2022-09-17T11:59:36.891Z,16.75
2022-09-17T12:02:45.884Z,16.46
2022-09-17T12:05:50.621Z,16.20
2022-09-17T12:08:55.810Z,16.18
2022-09-17T12:12:01.347Z,16.67
2022-09-17T12:15:06.726Z,16.89
2022-09-17T12:18:31.584Z,17.22
2022-09-17T12:21:38.166Z,17.54
2022-09-17T12:24:41.959Z,17.50
2022-09-17T12:27:46.348Z,17.99
2022-09-17T12:30:51.170Z,18.21
2022-09-17T12:33:55.503Z,18.45
2022-09-17T12:37:02.261Z,18.48
2022-09-17T12:40:10.929Z,18.56
2022-09-17T12:43:33.603Z,18.14
2022-09-17T12:46:44.343Z,18.66
2022-09-17T12:50:03.169Z,18.62
2022-09-17T12:53:14.954Z,18.55
2022-09-17T12:56:27.243Z,18.34
2022-09-17T12:59:31.444Z,18.61
2022-09-17T13:02:35.603Z,18.89
2022-09-17T13:05:59.633Z,18.94
2022-09-17T13:09:15.942Z,18.67
2022-09-17T13:12:21.871Z,18.42
2022-09-17T13:15:40.230Z,18.75
2022-09-17T13:18:59.462Z,18.76
2022-09-17T13:22:11.015Z,18.70
2022-09-17T13:25:14.271Z,18.81
2022-09-17T13:28:17.114Z,18.81
2022-09-17T13:31:23.217Z,18.87
2022-09-17T13:34:30.654Z,18.80
2022-09-17T13:37:34.528Z,18.96
2022-09-17T13:40:37.279Z,19.06
2022-09-17T13:43:39.990Z,18.98
2022-09-17T13:46:42.553Z,18.68
2022-09-17T13:49:47.079Z,19.20
2022-09-17T13:52:51.065Z,19.14
2022-09-17T13:55:54.663Z,19.39
2022-09-17T13:58:57.229Z,19.34
2022-09-17T14:02:04.714Z,18.79
2022-09-17T14:05:33.945Z,19.12
2022-09-17T14:08:49.838Z,18.62
2022-09-17T14:11:52.437Z,18.77
2022-09-17T14:14:55.073Z,18.80
2022-09-17T14:17:58.333Z,18.44
2022-09-17T14:21:06.522Z,18.81
2022-09-17T14:24:26.513Z,18.64
2022-09-17T14:27:42.835Z,18.57
2022-09-17T14:30:45.484Z,18.58
2022-09-17T14:33:48.123Z,18.52
2022-09-17T14:36:50.700Z,18.64
2022-09-17T14:39:54.650Z,18.56
2022-09-17T14:42:58.073Z,18.46
2022-09-17T14:46:00.609Z,18.43
2022-09-17T14:49:14.882Z,18.04
2022-09-17T14:52:28.204Z,18.34
2022-09-17T14:55:32.590Z,18.16
2022-09-17T14:58:36.288Z,18.11
2022-09-17T15:01:38.858Z,17.71
2022-09-17T15:04:43.815Z,17.65
2022-09-17T15:07:46.347Z,17.64
2022-09-17T15:10:54.964Z,17.37
2022-09-17T15:13:59.031Z,16.84
2022-09-17T15:17:02.386Z,16.96
2022-09-17T15:20:06.650Z,16.79
2022-09-17T15:23:10.955Z,16.24
2022-09-17T15:26:14.830Z,16.46
2022-09-17T15:29:20.935Z,16.45
2022-09-17T15:32:23.487Z,16.43
2022-09-17T15:35:28.580Z,16.53
2022-09-17T15:38:32.865Z,16.42
2022-09-17T15:41:37.076Z,16.29
2022-09-17T15:44:39.591Z,16.51
2022-09-17T15:47:51.428Z,16.35
2022-09-17T15:50:54.506Z,16.29
2022-09-17T15:53:58.585Z,16.25
2022-09-17T15:57:02.492Z,15.97
2022-09-17T16:00:12.546Z,15.68
2022-09-17T16:03:48.668Z,15.41
2022-09-17T16:07:03.680Z,14.96
2022-09-17T16:10:06.774Z,15.03
2022-09-17T16:13:10.674Z,14.98
2022-09-17T16:16:15.232Z,14.97
2022-09-17T16:19:17.895Z,14.97
2022-09-17T16:22:20.420Z,14.95
2022-09-17T16:25:24.562Z,14.86
2022-09-17T16:28:30.465Z,14.92
2022-09-17T16:31:33.155Z,14.90
2022-09-17T16:34:35.782Z,14.70
2022-09-17T16:37:39.351Z,14.94
2022-09-17T16:40:42.561Z,14.80
2022-09-17T16:43:46.488Z,14.79
2022-09-17T16:46:49.074Z,15.14
2022-09-17T16:49:51.639Z,15.05
2022-09-17T16:52:54.449Z,14.62
2022-09-17T16:55:57.027Z,14.82
2022-09-17T16:59:00.915Z,14.92
2022-09-17T17:02:03.497Z,14.92
2022-09-17T17:05:06.404Z,14.48
2022-09-17T17:08:09.014Z,14.61
2022-09-17T17:11:12.691Z,14.56
2022-09-17T17:14:16.728Z,14.51
2022-09-17T17:17:19.341Z,13.93
2022-09-17T17:20:21.916Z,14.41
2022-09-17T17:23:24.523Z,14.24
2022-09-17T17:26:27.136Z,14.33
2022-09-17T17:29:31.048Z,14.35
2022-09-17T17:32:33.752Z,14.33
2022-09-17T17:35:39.574Z,14.17
2022-09-17T17:38:42.916Z,13.74
2022-09-17T17:41:49.672Z,14.26
2022-09-17T17:44:55.569Z,14.26
2022-09-17T17:47:58.145Z,14.24
2022-09-17T17:51:03.040Z,13.66
2022-09-17T17:54:05.947Z,14.17
2022-09-17T17:57:08.527Z,14.24
2022-09-17T18:00:14.409Z,14.26
2022-09-17T18:03:16.989Z,14.27
2022-09-17T18:06:19.576Z,14.29
2022-09-17T18:09:22.132Z,14.01
2022-09-17T18:12:27.004Z,13.99
2022-09-17T18:15:31.139Z,14.27
2022-09-17T18:18:34.505Z,13.83
2022-09-17T18:22:26.659Z,14.28
2022-09-17T18:25:29.235Z,14.22
2022-09-17T18:28:32.041Z,14.05
2022-09-17T18:31:37.755Z,14.06
2022-09-17T18:34:40.434Z,14.29
2022-09-17T18:37:43.062Z,14.20
2022-09-17T18:40:45.698Z,13.86
2022-09-17T18:43:48.504Z,13.96
2022-09-17T18:46:52.508Z,14.10
2022-09-17T18:49:55.096Z,13.91
2022-09-17T18:52:57.685Z,14.03
2022-09-17T18:56:03.040Z,14.01
2022-09-17T18:59:08.324Z,13.49
2022-09-17T19:02:13.758Z,13.67
2022-09-17T19:05:18.602Z,13.72
2022-09-17T19:08:23.950Z,13.87
2022-09-17T19:11:26.567Z,13.79
2022-09-17T19:14:29.124Z,13.90
2022-09-17T19:17:33.110Z,13.90
2022-09-17T19:20:38.450Z,13.88
2022-09-17T19:23:41.436Z,13.95
2022-09-17T19:26:46.595Z,13.85
2022-09-17T19:29:52.893Z,13.97
2022-09-17T19:32:58.137Z,14.06
2022-09-17T19:36:01.586Z,13.86
2022-09-17T19:39:04.235Z,13.88
2022-09-17T19:42:07.386Z,13.64
2022-09-17T19:45:10.840Z,13.68
2022-09-17T19:48:14.856Z,13.39
2022-09-17T19:51:17.773Z,13.53
2022-09-17T19:54:20.423Z,13.83
2022-09-17T19:57:23.127Z,13.72
2022-09-17T20:00:25.743Z,13.35
2022-09-17T20:03:29.972Z,13.67
2022-09-17T20:06:33.743Z,13.37
2022-09-17T20:09:36.404Z,13.04
2022-09-17T20:12:38.983Z,13.49
2022-09-17T20:15:41.608Z,13.47
2022-09-17T20:18:45.657Z,13.34
2022-09-17T20:21:48.252Z,13.17
2022-09-17T20:24:51.254Z,13.40
2022-09-17T20:27:53.965Z,13.39
2022-09-17T20:31:03.600Z,13.10
2022-09-17T20:34:07.574Z,13.48
2022-09-17T20:37:13.458Z,13.52
2022-09-17T20:40:16.661Z,13.55
2022-09-17T20:43:19.322Z,13.57
2022-09-17T20:46:27.618Z,13.61
2022-09-17T20:49:32.952Z,13.61
2022-09-17T20:52:35.578Z,13.66
2022-09-17T20:55:38.357Z,13.65
2022-09-17T20:58:45.385Z,13.53
2022-09-17T21:01:49.645Z,13.22
2022-09-17T21:04:55.164Z,13.68
2022-09-17T21:07:57.924Z,13.70
2022-09-17T21:11:04.338Z,13.54
2022-09-17T21:14:06.972Z,13.68
2022-09-17T21:17:09.574Z,13.39
2022-09-17T21:20:13.565Z,13.52
2022-09-17T21:23:16.115Z,12.99
2022-09-17T21:26:20.644Z,12.83
2022-09-17T21:29:23.152Z,12.82
2022-09-17T21:32:25.899Z,13.28
2022-09-17T21:35:32.776Z,13.35
2022-09-17T21:38:35.394Z,13.36
2022-09-17T21:41:42.296Z,13.29
2022-09-17T21:44:45.298Z,13.37
2022-09-17T21:47:47.880Z,13.37
2022-09-17T21:50:51.897Z,13.25
2022-09-17T21:53:57.035Z,13.00
2022-09-17T21:57:00.230Z,13.35
2022-09-17T22:00:03.496Z,13.23
2022-09-17T22:03:06.441Z,13.38
2022-09-17T22:06:13.459Z,13.09
2022-09-17T22:09:17.500Z,13.42
2022-09-17T22:12:20.099Z,13.43
2022-09-17T22:15:22.695Z,12.99
2022-09-17T22:18:25.710Z,13.47
2022-09-17T22:21:30.149Z,13.15
2022-09-17T22:24:32.710Z,13.54
2022-09-17T22:27:35.441Z,13.47
2022-09-17T22:30:38.019Z,13.58
2022-09-17T22:33:42.039Z,13.14
2022-09-17T22:36:45.999Z,13.62
2022-09-17T22:39:48.577Z,13.67
2022-09-17T22:42:51.411Z,13.72
2022-09-17T22:45:54.026Z,13.72
2022-09-17T22:48:56.985Z,13.76
2022-09-17T22:52:00.937Z,13.77
2022-09-17T22:55:03.536Z,13.75
2022-09-17T22:58:06.147Z,13.54
2022-09-17T23:01:10.996Z,13.63
2022-09-17T23:04:13.699Z,13.53
2022-09-17T23:07:17.663Z,13.22
2022-09-17T23:10:20.228Z,13.47
2022-09-17T23:13:22.823Z,13.70
2022-09-17T23:16:25.554Z,13.71
2022-09-17T23:19:29.060Z,13.67
2022-09-17T23:22:32.985Z,13.23
2022-09-17T23:25:35.585Z,13.62
2022-09-17T23:28:38.440Z,13.30
2022-09-17T23:31:41.212Z,13.71
2022-09-17T23:34:43.796Z,13.70
2022-09-17T23:37:47.761Z,13.28
2022-09-17T23:40:50.305Z,13.62
2022-09-17T23:43:54.044Z,13.15
2022-09-17T23:46:56.701Z,13.43
2022-09-17T23:49:59.307Z,13.38
2022-09-17T23:53:03.297Z,13.18
2022-09-17T23:56:09.293Z,13.17
2022-09-17T23:59:13.065Z,13.19
